• Join FlightAware (Why Join?)
  • Login
  • US Flag 
11:28PM EDT


 

Airport Tracker/Info


-or-


 

Live Flight TrackerFlight Track Log ✈ AAR8730 ✈ 10-Aug-2014 ✈ RKJY / RSU - RKSS / GMP

Flight Track Log - Related Links

Times and Time Zones

All times are in EDT time to prevent confusion due to time zone crossing. See the AAR8730 flight status page for this flight to view local times or setup timezone preferences in your user account.

Time Position Orientation Groundspeed Altitude Reporting Facility
EDT Latitude Longitude Course Direction KTS MPH feet Rate Location/Type
11:52PM 35.1514 127.5237 346° North  Level Estimated
11:53PM 35.2293 127.5007 346° North  Level Estimated
11:54PM 35.3072 127.4776 346° North  Level Estimated
11:55PM 35.3851 127.4545 346° North  Level Estimated
11:55PM 35.2600 127.2065 341° North 399 459 18,500  Level FlightAware ADS-B (RKSO / OSN)
11:56PM 35.4630 127.4314 346° North  Level Estimated
11:56PM 35.3365 127.1756 342° North 405 466 20,100  Level FlightAware ADS-B (RKSO / OSN)
11:57PM 35.4066 127.1473 342° North 413 475 21,000 660 Climbing FlightAware ADS-B (RKSO / OSN)
11:57PM 35.4785 127.1183 342° North 416 479 21,000  Level FlightAware ADS-B (RKSO / OSN)
11:58PM 35.5550 127.0875 342° North 416 479 21,000  Level FlightAware ADS-B (RKSO / OSN)
11:59PM 35.6266 127.0585 342° North 407 468 21,000  Level FlightAware ADS-B (RKSO / OSN)
11:59PM 35.6973 127.0299 342° North 409 471 21,000  Level FlightAware ADS-B (RKSO / OSN)
12:00AM 35.7682 127.0010 342° North 410 472 21,000  Level FlightAware ADS-B (RKSO / OSN)
12:01AM 35.8396 126.9721 342° North 412 474 21,000  Level FlightAware ADS-B (RKSO / OSN)
12:01AM 35.9100 126.9521 North 428 493 21,000 -420 Level FlightAware ADS-B (RKSO / OSN)
12:02AM 35.9962 126.9605 North 425 489 20,500 -840 Descending FlightAware ADS-B (RKSO / OSN)
12:03AM 36.0757 126.9692 North 425 489 19,900 -1,020 Descending FlightAware ADS-B (RKSO / OSN)
12:03AM 36.1518 126.9776 North 422 486 19,200 -1,020 Descending FlightAware ADS-B (RKSO / OSN)
12:04AM 36.2296 126.9862 North 412 474 18,600 -1,020 Descending FlightAware ADS-B (RKSO / OSN)
12:05AM 36.3057 126.9945 North 411 473 17,900 -1,020 Descending FlightAware ADS-B (RKSO / OSN)
12:05AM 36.3800 127.0024 North 401 461 17,300 -960 Descending FlightAware ADS-B (RKSO / OSN)
12:06AM 36.4172 127.0023 358° North 393 452 17,000 -1,020 Descending FlightAware ADS-B (RKSO / OSN)
12:06AM 36.4880 126.9999 358° North 366 421 16,300 -780 Descending FlightAware ADS-B (RKSO / OSN)
12:07AM 36.5531 126.9976 358° North 349 402 16,000 -300 Descending FlightAware ADS-B (RKSO / OSN)
12:07AM 36.5863 126.9978 North 351 404 16,000 -300 Level FlightAware ADS-B (RKSO / OSN)
12:08AM 36.6138 127.0110 32° Northeast 343 395 15,800 -420 Descending FlightAware ADS-B (RKSO / OSN)
12:08AM 36.6627 127.0527 35° Northeast 332 382 15,600 -420 Descending FlightAware ADS-B (RKSO / OSN)
12:09AM 36.7172 127.0986 34° Northeast 331 381 15,300 -480 Descending FlightAware ADS-B (RKSO / OSN)
12:10AM 36.7685 127.1414 34° Northeast 331 381 15,000 -1,020 Descending FlightAware ADS-B (RKSO / OSN)
12:10AM 36.8182 127.1833 34° Northeast 327 376 14,000 -1,620 Descending FlightAware ADS-B (RKSO / OSN)
12:11AM 36.8692 127.2255 33° Northeast 324 373 12,900 -1,320 Descending FlightAware ADS-B (RKSO / OSN)
12:12AM 36.9204 127.2613 16° North 322 371 12,300 -600 Descending FlightAware ADS-B (RKSO / OSN)
12:12AM 36.9500 127.2627 350° North 322 371 12,300 -120 Level FlightAware ADS-B (RKSO / OSN)
12:13AM 37.0069 127.2412 343° North 313 360 12,200 -600 Descending FlightAware ADS-B (RKSO / OSN)
12:13AM 37.0575 127.2217 343° North 277 319 11,500 -1,020 Descending FlightAware ADS-B (RKSO / OSN)
12:14AM 37.1049 127.2032 342° North 249 287 10,900 -1,200 Descending FlightAware ADS-B (RKSO / OSN)
12:15AM 37.1479 127.1860 342° North 239 275 9,900 -1,500 Descending FlightAware ADS-B (RKSO / OSN)
12:15AM 37.1672 127.1783 342° North 238 274 9,400 -1,680 Descending FlightAware ADS-B (RKSO / OSN)
12:15AM 37.1896 127.1694 343° North 235 270 8,800 -1,500 Descending FlightAware ADS-B (RKSO / OSN)
12:16AM 37.2097 127.1616 343° North 227 261 8,400 -1,080 Descending FlightAware ADS-B (RKSO / OSN)
12:16AM 37.2291 127.1539 342° North 218 251 8,100 -900 Descending FlightAware ADS-B (RKSO / OSN)
12:16AM 37.2477 127.1463 342° North 207 238 7,800 -960 Descending FlightAware ADS-B (RKSO / OSN)
12:17AM 37.2625 127.1404 343° North 202 232 7,500 -480 Descending FlightAware ADS-B (RKSO / OSN)
12:17AM 37.2824 127.1311 327° Northwest 184 212 7,500 -780 Level FlightAware ADS-B (RKSO / OSN)
12:17AM 37.2954 127.1166 316° Northwest 184 212 7,000 -1,680 Descending FlightAware ADS-B (RKSO / OSN)
12:18AM 37.3073 127.1015 315° West 193 222 6,400 -1,500 Descending FlightAware ADS-B (RKSO / OSN)
12:18AM 37.3205 127.0849 316° Northwest 197 227 6,000 -900 Descending FlightAware ADS-B (RKSO / OSN)
12:18AM 37.3330 127.0695 315° West 192 221 5,800 -480 Descending FlightAware ADS-B (RKSO / OSN)
12:19AM 37.3447 127.0551 315° West 193 222 5,700 -480 Descending FlightAware ADS-B (RKSO / OSN)
12:19AM 37.3583 127.0381 315° West 191 220 5,500 -780 Descending FlightAware ADS-B (RKSO / OSN)
12:19AM 37.3689 127.0248 315° West 192 221 5,200 -1,080 Descending FlightAware ADS-B (RKSO / OSN)
12:20AM 37.3829 127.0073 315° West 193 222 4,800 -1,200 Descending FlightAware ADS-B (RKSO / OSN)
12:20AM 37.3964 126.9906 315° West 195 224 4,400 -1,140 Descending FlightAware ADS-B (RKSO / OSN)
12:20AM 37.4077 126.9765 315° West 194 223 4,100 -1,020 Descending FlightAware ADS-B (RKSO / OSN)
12:21AM 37.4231 126.9573 315° West 192 221 3,700 -1,080 Descending FlightAware ADS-B (RKSO / OSN)
12:21AM 37.4348 126.9426 315° West 191 220 3,300 -1,080 Descending FlightAware ADS-B (RKSO / OSN)
12:21AM 37.4481 126.9260 315° West 187 215 3,000 -960 Descending FlightAware ADS-B (RKSO / OSN)
12:22AM 37.4597 126.9115 315° West 187 215 2,700 -900 Descending FlightAware ADS-B (RKSO / OSN)
12:22AM 37.4691 126.8997 315° West 173 199 2,400 -840 Descending FlightAware ADS-B (RKSO / OSN)
12:22AM 37.4817 126.8839 315° West 168 193 2,200 -720 Descending FlightAware ADS-B (RKSO / OSN)
12:25AM 37.5583 126.7906 316° Northwest  Level Estimated
12:26AM 37.5583 126.7906 North  Level Estimated
12:27AM 37.5583 126.7906 North  Level Estimated
12:28AM 37.5583 126.7906 North  Level Estimated
12:29AM 37.5583 126.7906 North  Level Estimated
12:30AM 37.5583 126.7906 North  Level Estimated
12:31AM 37.5583 126.7906 North  Level Estimated
12:32AM 37.5583 126.7906 North  Level Estimated
12:33AM 37.5583 126.7906 North  Level Estimated
12:34AM 37.5583 126.7906 North  Level Estimated